Time;durP1;ratioP1;P1;durP2;ratioP2;P2;SDS_P1;SDS_P2;PMS_P1;PMS_P2;Temp;Humidity;BMP_temperature;BMP_pressure;BME280_temperature;BME280_humidity;BME280_pressure;Samples;Min_cycle;Max_cycle;Signal;HPM_P1;HPM_P2
2022/02/05 00:05:20;;;;;;;5.77;2.10;;;3.90;99.90;;;;;;4990363;28;20183;-77
2022/02/05 00:07:55;;;;;;;4.63;2.17;;;3.90;99.90;;;;;;4991270;28;20196;-79
2022/02/05 00:11:07;;;;;;;6.03;2.20;;;4.00;99.90;;;;;;4990884;28;20507;-79
2022/02/05 00:13:34;;;;;;;7.30;2.50;;;3.80;99.90;;;;;;4990304;28;20192;-78
2022/02/05 00:43:12;;;;;;;5.63;1.77;;;3.70;99.90;;;;;;4992599;28;20267;-79
2022/02/05 00:45:43;;;;;;;4.87;1.80;;;3.60;99.90;;;;;;4991629;28;20604;-77
2022/02/05 00:48:10;;;;;;;4.17;1.90;;;3.50;99.90;;;;;;4992156;28;20231;-78
2022/02/05 00:50:40;;;;;;;5.33;1.93;;;3.60;99.90;;;;;;4991576;28;20191;-77
2022/02/05 00:53:23;;;;;;;4.47;1.73;;;3.70;99.90;;;;;;4992505;28;20191;-80
2022/02/05 00:55:57;;;;;;;7.10;2.10;;;3.60;99.90;;;;;;4992739;28;20258;-78
2022/02/05 00:58:22;;;;;;;3.93;2.00;;;3.70;99.90;;;;;;4992312;28;20196;-76
2022/02/05 01:00:48;;;;;;;5.53;1.90;;;3.80;99.90;;;;;;4991783;28;20276;-77
2022/02/05 01:03:13;;;;;;;4.30;2.00;;;3.70;99.90;;;;;;4988592;28;20558;-78
2022/02/05 01:05:39;;;;;;;7.23;2.50;;;3.80;99.90;;;;;;4990613;28;20359;-75
2022/02/05 01:08:05;;;;;;;4.23;1.77;;;3.80;99.90;;;;;;4992181;28;20204;-78
2022/02/05 01:10:31;;;;;;;4.43;2.00;;;3.90;99.90;;;;;;4993774;28;20199;-78
2022/02/05 01:13:04;;;;;;;3.73;1.90;;;3.90;99.90;;;;;;4996098;28;20635;-77
2022/02/05 01:15:37;;;;;;;7.30;2.50;;;3.90;99.90;;;;;;4992809;28;20204;-77
2022/02/05 01:18:06;;;;;;;6.50;2.07;;;3.90;99.90;;;;;;4992435;28;20200;-76
2022/02/05 01:21:06;;;;;;;3.27;1.97;;;3.90;99.90;;;;;;4991826;28;20248;-78
2022/02/05 01:23:30;;;;;;;4.93;2.23;;;3.80;99.90;;;;;;4992491;28;20254;-79
2022/02/05 01:26:06;;;;;;;4.80;2.10;;;3.80;99.90;;;;;;4991775;28;20191;-79
2022/02/05 01:28:34;;;;;;;6.87;3.00;;;3.80;99.90;;;;;;4995525;28;20210;-80
2022/02/05 01:31:00;;;;;;;6.53;3.20;;;3.90;99.90;;;;;;4977954;28;20207;-79
2022/02/05 01:39:27;;;;;;;5.20;2.60;;;4.00;99.90;;;;;;4983527;28;20231;-78
2022/02/05 01:55:44;;;;;;;4.57;2.83;;;3.90;99.90;;;;;;4993584;28;20216;-79
2022/02/05 02:06:13;;;;;;;5.43;3.07;;;3.70;99.90;;;;;;4992922;28;20739;-78
2022/02/05 02:11:53;;;;;;;4.97;3.23;;;3.70;99.90;;;;;;4991575;28;20191;-75
2022/02/05 02:19:32;;;;;;;6.40;3.50;;;3.70;99.90;;;;;;4987069;28;20528;-75
2022/02/05 02:22:15;;;;;;;7.67;3.17;;;3.70;99.90;;;;;;4987454;28;20534;-78
2022/02/05 02:30:16;;;;;;;6.23;3.83;;;3.70;99.90;;;;;;4965918;28;20271;-79
2022/02/05 02:32:46;;;;;;;4.77;3.40;;;3.80;99.90;;;;;;4993895;28;20188;-77
2022/02/05 02:35:20;;;;;;;6.70;3.87;;;3.80;99.90;;;;;;4993688;28;20188;-77
2022/02/05 02:38:04;;;;;;;4.97;3.40;;;3.80;99.90;;;;;;4977602;28;20199;-77
2022/02/05 02:41:20;;;;;;;6.20;3.53;;;3.80;99.90;;;;;;4993875;28;20180;-76
2022/02/05 02:43:22;;;;;;;7.10;3.33;;;3.90;99.90;;;;;;4986941;28;20224;-79
2022/02/05 02:45:47;;;;;;;5.00;3.30;;;3.80;99.90;;;;;;4976731;28;20206;-80
2022/02/05 02:48:14;;;;;;;7.30;3.37;;;3.90;99.90;;;;;;4993526;28;20287;-80
2022/02/05 02:56:30;;;;;;;5.80;3.37;;;3.80;99.90;;;;;;4975704;28;20228;-80
2022/02/05 02:56:56;;;;;;;4.93;2.93;;;3.70;99.90;;;;;;4993474;28;20222;-79
2022/02/05 03:01:57;;;;;;;5.57;3.40;;;3.70;99.90;;;;;;4993694;28;20172;-79
2022/02/05 03:04:23;;;;;;;4.70;3.27;;;3.80;99.90;;;;;;4976145;28;20279;-77
2022/02/05 03:06:48;;;;;;;5.93;3.10;;;3.80;99.90;;;;;;4994207;28;20235;-76
2022/02/05 03:09:14;;;;;;;7.97;3.20;;;3.80;99.90;;;;;;4976255;28;20215;-79
2022/02/05 03:11:39;;;;;;;4.63;3.57;;;3.90;99.90;;;;;;4994144;28;20182;-78
2022/02/05 03:14:05;;;;;;;4.77;3.23;;;3.90;99.90;;;;;;4996230;28;20188;-75
2022/02/05 03:16:35;;;;;;;6.53;3.40;;;3.90;99.90;;;;;;5006546;28;20188;-77
2022/02/05 03:19:10;;;;;;;6.43;3.87;;;4.00;99.90;;;;;;5007828;28;20176;-80
2022/02/05 03:21:36;;;;;;;8.73;3.57;;;3.90;99.90;;;;;;5003185;28;20172;-77
2022/02/05 03:24:06;;;;;;;6.37;3.10;;;3.90;99.90;;;;;;5006500;28;20550;-75
2022/02/05 03:26:34;;;;;;;5.60;3.10;;;4.00;99.90;;;;;;5009074;28;20192;-77
2022/02/05 03:29:00;;;;;;;7.67;4.07;;;4.00;99.90;;;;;;4991884;28;20199;-76
2022/02/05 03:31:26;;;;;;;5.77;3.00;;;3.90;99.90;;;;;;5007112;28;20177;-79
2022/02/05 03:33:51;;;;;;;5.70;2.60;;;3.90;99.90;;;;;;5007927;28;20237;-77
2022/02/05 03:36:17;;;;;;;7.87;3.30;;;4.00;99.90;;;;;;5008328;28;20271;-76
2022/02/05 03:38:43;;;;;;;5.03;2.87;;;3.90;99.90;;;;;;5008573;28;20207;-75
2022/02/05 03:41:08;;;;;;;6.87;3.33;;;4.00;99.90;;;;;;5005925;28;20191;-79
2022/02/05 03:43:34;;;;;;;5.37;3.00;;;4.10;99.90;;;;;;4979925;28;20191;-78
2022/02/05 03:45:59;;;;;;;4.57;2.00;;;4.10;99.90;;;;;;4995169;28;20567;-78
2022/02/05 03:48:25;;;;;;;4.80;2.43;;;4.10;99.90;;;;;;4995019;28;20208;-78
2022/02/05 03:50:51;;;;;;;5.10;2.40;;;4.10;99.90;;;;;;4995060;28;20178;-78
2022/02/05 03:53:17;;;;;;;6.27;2.57;;;4.10;99.90;;;;;;4994412;28;20610;-76
2022/02/05 03:55:46;;;;;;;5.33;3.07;;;4.10;99.90;;;;;;4994713;28;20200;-78
2022/02/05 03:58:12;;;;;;;5.37;3.17;;;4.10;99.90;;;;;;4989906;28;20231;-78
2022/02/05 04:00:37;;;;;;;6.73;2.67;;;4.10;99.90;;;;;;4989605;28;20217;-77
2022/02/05 04:03:03;;;;;;;7.90;2.80;;;4.10;99.90;;;;;;4973268;28;20184;-78
2022/02/05 04:05:29;;;;;;;6.93;3.20;;;4.10;99.90;;;;;;4972653;28;20558;-78
2022/02/05 04:07:56;;;;;;;6.93;2.73;;;4.10;99.90;;;;;;4990593;28;20214;-78
2022/02/05 04:10:28;;;;;;;5.00;2.83;;;4.00;99.90;;;;;;4973842;28;20196;-78
2022/02/05 04:15:58;;;;;;;5.40;3.07;;;3.90;99.90;;;;;;4988097;28;21233;-80
2022/02/05 04:18:24;;;;;;;7.77;3.27;;;3.90;99.90;;;;;;4970183;28;20200;-79
2022/02/05 04:20:50;;;;;;;4.57;2.93;;;3.90;99.90;;;;;;4986880;28;20247;-78
2022/02/05 04:23:16;;;;;;;5.33;2.70;;;3.90;99.90;;;;;;4987875;28;20181;-79
2022/02/05 04:25:42;;;;;;;5.20;2.63;;;4.00;99.90;;;;;;4971019;28;20192;-79
2022/02/05 04:28:08;;;;;;;7.37;2.83;;;4.00;99.90;;;;;;4988179;28;20211;-77
2022/02/05 04:30:34;;;;;;;6.10;2.53;;;4.10;99.90;;;;;;4969764;28;20271;-78
2022/02/05 04:33:00;;;;;;;3.93;2.97;;;4.10;99.90;;;;;;4969701;28;20271;-79
2022/02/05 04:35:26;;;;;;;5.73;2.70;;;4.10;99.90;;;;;;4987282;28;20307;-80
2022/02/05 04:37:54;;;;;;;5.33;2.30;;;4.10;99.90;;;;;;4969442;28;20266;-77
2022/02/05 04:48:09;;;;;;;5.93;2.50;;;4.20;99.90;;;;;;4989208;28;20211;-77
2022/02/05 05:21:47;;;;;;;8.57;1.80;;;4.20;99.90;;;;;;4987733;28;20187;-77
2022/02/05 05:24:13;;;;;;;4.33;1.90;;;4.20;99.90;;;;;;4987258;28;20180;-77
2022/02/05 05:26:38;;;;;;;7.03;1.90;;;4.20;99.90;;;;;;4986805;28;21248;-77
2022/02/05 05:29:04;;;;;;;3.90;1.80;;;4.20;99.90;;;;;;4987457;28;20199;-77
2022/02/05 05:31:30;;;;;;;7.53;2.10;;;4.20;99.90;;;;;;4970113;28;20208;-78
2022/02/05 05:33:55;;;;;;;4.53;1.97;;;4.20;99.90;;;;;;4971712;28;20184;-78
2022/02/05 05:36:21;;;;;;;6.33;2.30;;;4.10;99.90;;;;;;4970859;28;20212;-78
2022/02/05 05:38:46;;;;;;;3.47;1.73;;;4.20;99.90;;;;;;4970858;28;20442;-78
2022/02/05 05:41:12;;;;;;;4.40;1.97;;;4.20;99.90;;;;;;4988703;28;20618;-78
2022/02/05 05:46:31;;;;;;;2.93;2.07;;;4.20;99.90;;;;;;4985053;28;20208;-80
2022/02/05 05:49:09;;;;;;;5.30;1.97;;;4.10;99.90;;;;;;4986859;28;20184;-80
2022/02/05 05:51:35;;;;;;;5.67;2.20;;;4.10;99.90;;;;;;4985458;28;20689;-77
2022/02/05 05:54:00;;;;;;;3.97;2.50;;;4.10;99.90;;;;;;4989725;28;20216;-80
2022/02/05 05:56:26;;;;;;;7.17;2.50;;;4.10;99.90;;;;;;4974040;28;20212;-78
2022/02/05 05:58:52;;;;;;;5.27;2.17;;;4.20;99.90;;;;;;4975484;28;20188;-77
2022/02/05 06:01:17;;;;;;;6.93;3.10;;;4.20;99.90;;;;;;4992156;28;20188;-77
2022/02/05 06:03:43;;;;;;;6.53;2.47;;;4.20;99.90;;;;;;4975134;28;20248;-78
2022/02/05 06:06:09;;;;;;;7.17;3.10;;;4.20;99.90;;;;;;4975551;28;20189;-78
2022/02/05 06:08:35;;;;;;;4.93;2.17;;;4.20;99.90;;;;;;4992739;28;20291;-77
2022/02/05 06:11:00;;;;;;;4.27;2.23;;;4.20;99.90;;;;;;4992336;28;20339;-78
2022/02/05 06:13:27;;;;;;;6.73;2.40;;;4.30;99.90;;;;;;4976160;28;20203;-77
2022/02/05 06:15:54;;;;;;;4.87;2.70;;;4.20;99.90;;;;;;4994637;28;20203;-77
2022/02/05 06:18:20;;;;;;;5.37;2.50;;;4.20;99.90;;;;;;4994137;28;20196;-78
2022/02/05 06:20:45;;;;;;;4.47;1.97;;;4.20;99.90;;;;;;4994890;28;20188;-77
2022/02/05 06:23:11;;;;;;;4.73;2.30;;;4.20;99.90;;;;;;4994884;28;20216;-77
2022/02/05 06:25:39;;;;;;;4.37;2.20;;;4.20;99.90;;;;;;4993521;28;20262;-77
2022/02/05 06:28:05;;;;;;;4.60;1.93;;;4.20;99.90;;;;;;4998334;28;20208;-77
2022/02/05 06:30:30;;;;;;;3.73;2.07;;;4.20;99.90;;;;;;4984067;28;20203;-77
2022/02/05 06:32:56;;;;;;;5.00;2.20;;;4.20;99.90;;;;;;4983563;28;20183;-77
2022/02/05 06:35:22;;;;;;;4.33;1.77;;;4.20;99.90;;;;;;4992248;28;20207;-77
2022/02/05 06:37:48;;;;;;;5.10;2.20;;;4.20;99.90;;;;;;4991477;28;20253;-77
2022/02/05 06:40:13;;;;;;;4.60;2.13;;;4.20;99.90;;;;;;4973321;28;20184;-77
2022/02/05 06:42:43;;;;;;;9.10;2.60;;;4.20;99.90;;;;;;4974022;28;20196;-77
2022/02/05 06:45:09;;;;;;;3.83;1.67;;;4.30;99.90;;;;;;4972939;28;20623;-77
2022/02/05 06:47:34;;;;;;;3.10;1.90;;;4.30;99.90;;;;;;4972274;28;20211;-77
2022/02/05 06:50:00;;;;;;;8.13;2.33;;;4.20;99.90;;;;;;4989401;28;20191;-77
2022/02/05 06:52:26;;;;;;;4.77;2.17;;;4.20;99.90;;;;;;4989088;28;20192;-78
2022/02/05 06:54:51;;;;;;;3.43;2.03;;;4.20;99.90;;;;;;4989637;28;20192;-78
2022/02/05 06:57:17;;;;;;;4.47;3.00;;;4.20;99.90;;;;;;4972122;28;20222;-77
2022/02/05 06:59:42;;;;;;;5.50;2.70;;;4.20;99.90;;;;;;4989656;28;20199;-77
2022/02/05 07:02:08;;;;;;;8.43;2.63;;;4.10;99.90;;;;;;4971987;28;20191;-77
2022/02/05 07:04:35;;;;;;;6.17;2.83;;;4.10;99.90;;;;;;4988442;28;20188;-77
2022/02/05 07:07:01;;;;;;;6.83;3.30;;;4.10;99.90;;;;;;4987941;28;20208;-77
2022/02/05 07:09:28;;;;;;;7.70;2.83;;;4.10;99.90;;;;;;4988495;28;20200;-77
2022/02/05 07:11:57;;;;;;;6.37;2.40;;;4.00;99.90;;;;;;4972848;28;20188;-77
2022/02/05 07:14:27;;;;;;;5.13;2.60;;;4.00;99.90;;;;;;4988195;28;20196;-77
2022/02/05 07:17:03;;;;;;;5.90;2.90;;;4.00;99.90;;;;;;4972319;28;20435;-77
2022/02/05 07:21:55;;;;;;;6.70;3.13;;;3.90;99.90;;;;;;4988269;28;20181;-77
2022/02/05 07:24:32;;;;;;;7.93;2.73;;;3.80;99.90;;;;;;4970230;28;20184;-78
2022/02/05 07:29:42;;;;;;;5.33;2.53;;;3.90;99.90;;;;;;4990059;28;20195;-79
2022/02/05 07:32:08;;;;;;;8.30;2.67;;;3.90;99.90;;;;;;4972203;28;20658;-78
2022/02/05 07:34:37;;;;;;;4.23;2.60;;;3.90;99.90;;;;;;4973065;28;20192;-79
2022/02/05 07:37:03;;;;;;;5.13;2.70;;;3.90;99.90;;;;;;4972162;28;20228;-78
2022/02/05 07:39:31;;;;;;;6.97;3.20;;;4.00;99.90;;;;;;4988623;28;20191;-79
2022/02/05 07:41:59;;;;;;;10.23;3.00;;;4.10;99.90;;;;;;4986751;28;20185;-79
2022/02/05 07:44:25;;;;;;;7.97;2.60;;;4.10;99.90;;;;;;4971604;28;20191;-78
2022/02/05 07:46:52;;;;;;;5.57;2.43;;;4.10;99.90;;;;;;4973161;28;20227;-78
2022/02/05 07:49:20;;;;;;;8.37;2.63;;;4.20;99.90;;;;;;4990082;28;20621;-78
2022/02/05 07:51:46;;;;;;;3.97;2.27;;;4.10;99.90;;;;;;4972524;28;20211;-79
2022/02/05 07:54:12;;;;;;;9.13;2.20;;;4.20;99.90;;;;;;4972311;28;20203;-78
2022/02/05 07:56:44;;;;;;;5.73;2.83;;;4.30;99.90;;;;;;4989144;28;20204;-79
2022/02/05 07:59:14;;;;;;;5.83;2.63;;;4.30;99.90;;;;;;4988043;28;20188;-79
2022/02/05 08:01:40;;;;;;;7.67;3.33;;;4.30;99.90;;;;;;4988321;28;21090;-78
2022/02/05 08:04:06;;;;;;;4.50;2.37;;;4.30;99.90;;;;;;4988434;28;20980;-78
2022/02/05 08:06:34;;;;;;;6.93;2.80;;;4.40;99.90;;;;;;4988890;28;20192;-78
2022/02/05 08:09:03;;;;;;;3.67;2.77;;;4.40;99.90;;;;;;4970340;28;20262;-76
2022/02/05 08:11:39;;;;;;;5.47;2.63;;;4.30;99.90;;;;;;4986606;28;20181;-77
2022/02/05 08:14:08;;;;;;;4.23;2.83;;;4.40;99.90;;;;;;4987275;28;20175;-76
2022/02/05 08:19:10;;;;;;;6.10;2.63;;;4.50;99.90;;;;;;4987330;28;20187;-77
2022/02/05 08:21:36;;;;;;;8.00;2.63;;;4.50;99.90;;;;;;4968883;28;20184;-77
2022/02/05 08:24:02;;;;;;;6.13;2.90;;;4.50;99.90;;;;;;4987047;28;20199;-77
2022/02/05 08:26:29;;;;;;;5.50;2.77;;;4.50;99.90;;;;;;4987663;28;20180;-78
2022/02/05 08:28:56;;;;;;;5.93;2.77;;;4.50;99.90;;;;;;4983600;28;20184;-78
2022/02/05 08:31:22;;;;;;;6.10;3.00;;;4.40;99.90;;;;;;4966297;28;20242;-77
2022/02/05 08:33:48;;;;;;;9.27;3.90;;;4.30;99.90;;;;;;4965929;28;20215;-78
2022/02/05 08:36:15;;;;;;;5.80;2.50;;;4.30;99.90;;;;;;4984230;28;20204;-78
2022/02/05 08:38:40;;;;;;;7.90;3.33;;;4.30;99.90;;;;;;4968781;28;20682;-78
2022/02/05 08:41:06;;;;;;;4.80;2.57;;;4.40;99.90;;;;;;4980318;28;20180;-78
2022/02/05 08:43:32;;;;;;;7.00;3.03;;;4.50;99.90;;;;;;4982736;28;20224;-77
2022/02/05 08:45:58;;;;;;;6.37;2.60;;;4.60;99.90;;;;;;4984790;28;20491;-77
2022/02/05 08:48:24;;;;;;;6.17;3.40;;;4.60;99.90;;;;;;4983172;28;20294;-77
2022/02/05 08:50:50;;;;;;;6.90;3.13;;;4.70;99.90;;;;;;4983373;28;20628;-77
2022/02/05 08:53:19;;;;;;;7.17;2.73;;;4.70;99.90;;;;;;4983586;28;20192;-79
2022/02/05 08:55:45;;;;;;;5.67;2.23;;;4.70;99.90;;;;;;4983459;28;20210;-77
2022/02/05 08:58:11;;;;;;;6.73;3.20;;;4.80;99.90;;;;;;4982573;28;20282;-78
2022/02/05 09:00:46;;;;;;;5.73;2.50;;;4.90;99.90;;;;;;4982333;28;20638;-78
2022/02/05 09:03:22;;;;;;;4.50;2.07;;;5.00;99.90;;;;;;4965793;28;20696;-78
2022/02/05 09:05:49;;;;;;;4.57;2.10;;;5.20;99.90;;;;;;4983743;28;20207;-79
2022/02/05 09:08:26;;;;;;;4.83;2.30;;;5.40;99.90;;;;;;4982576;28;20204;-77
2022/02/05 09:16:04;;;;;;;4.13;2.13;;;5.60;99.90;;;;;;4982145;28;20222;-77
2022/02/05 09:18:30;;;;;;;8.00;2.30;;;5.40;99.90;;;;;;4981950;28;20216;-77
2022/02/05 09:20:56;;;;;;;5.00;2.20;;;5.30;99.90;;;;;;4964289;28;20286;-77
2022/02/05 09:23:22;;;;;;;6.07;2.47;;;5.10;99.90;;;;;;4980478;28;20363;-78
2022/02/05 09:25:47;;;;;;;5.10;2.20;;;5.10;99.90;;;;;;4964202;28;20861;-77
2022/02/05 09:28:13;;;;;;;4.03;2.00;;;5.00;99.90;;;;;;4965944;28;20204;-78
2022/02/05 09:30:49;;;;;;;5.07;2.10;;;4.90;99.90;;;;;;4969769;28;20180;-77
2022/02/05 09:33:15;;;;;;;8.07;3.20;;;5.00;99.90;;;;;;4970366;28;20196;-77
2022/02/05 09:35:40;;;;;;;7.40;3.13;;;5.00;99.90;;;;;;4987628;28;20216;-78
2022/02/05 09:38:06;;;;;;;4.00;2.27;;;5.00;99.90;;;;;;4987769;28;20208;-77
2022/02/05 09:40:32;;;;;;;6.30;2.37;;;5.00;99.90;;;;;;4988146;28;20274;-78
2022/02/05 09:42:58;;;;;;;6.23;2.20;;;5.00;99.90;;;;;;4970467;28;20212;-78
2022/02/05 09:45:24;;;;;;;4.50;2.40;;;5.10;99.90;;;;;;4987598;28;21013;-77
2022/02/05 09:47:51;;;;;;;4.83;2.40;;;5.20;99.90;;;;;;4987214;28;20219;-78
2022/02/05 09:50:19;;;;;;;5.13;1.90;;;5.20;99.90;;;;;;4986836;28;20270;-77
2022/02/05 09:52:50;;;;;;;6.13;2.33;;;5.20;99.90;;;;;;4987173;28;20176;-78
2022/02/05 09:55:16;;;;;;;4.20;2.17;;;5.10;99.90;;;;;;4986285;28;20176;-77
2022/02/05 09:57:42;;;;;;;6.10;2.00;;;5.20;99.90;;;;;;4986161;28;20701;-77
2022/02/05 10:00:15;;;;;;;7.77;2.20;;;5.20;99.90;;;;;;4985799;28;20266;-77
2022/02/05 10:02:40;;;;;;;6.13;2.20;;;5.20;99.90;;;;;;4986724;28;20710;-78
2022/02/05 10:05:11;;;;;;;7.47;2.60;;;5.20;99.90;;;;;;4986283;28;20192;-77
2022/02/05 10:07:59;;;;;;;7.13;2.17;;;5.20;99.90;;;;;;4986565;28;20208;-77
2022/02/05 10:10:45;;;;;;;5.00;1.83;;;5.30;99.90;;;;;;4985348;28;20542;-77
2022/02/05 10:13:18;;;;;;;6.03;1.97;;;5.30;99.90;;;;;;4985089;28;20227;-76
2022/02/05 10:15:50;;;;;;;8.33;2.30;;;5.60;99.90;;;;;;4985656;28;20204;-77
2022/02/05 10:18:26;;;;;;;5.90;1.80;;;5.80;99.90;;;;;;4967791;28;20200;-76
2022/02/05 10:21:00;;;;;;;6.70;2.00;;;5.80;99.90;;;;;;4985688;28;20186;-77
2022/02/05 10:23:27;;;;;;;7.60;1.80;;;5.70;99.90;;;;;;4966948;28;20658;-77
2022/02/05 10:25:54;;;;;;;6.20;2.30;;;5.70;99.90;;;;;;4984946;28;20713;-76
2022/02/05 10:28:20;;;;;;;5.10;1.73;;;5.90;99.90;;;;;;4985105;28;20255;-77
2022/02/05 10:30:49;;;;;;;7.77;2.00;;;6.10;99.90;;;;;;4967678;28;20184;-77
2022/02/05 10:33:29;;;;;;;5.80;2.00;;;6.20;99.90;;;;;;4985344;28;20682;-77
2022/02/05 10:36:23;;;;;;;8.27;2.60;;;6.00;99.90;;;;;;4985567;28;20569;-77
2022/02/05 10:39:12;;;;;;;4.90;2.00;;;5.90;99.90;;;;;;4985127;28;20263;-77
2022/02/05 10:44:27;;;;;;;3.47;1.90;;;6.00;99.90;;;;;;4986195;28;20508;-79
2022/02/05 10:46:57;;;;;;;6.37;1.67;;;6.00;99.90;;;;;;4985967;28;20216;-78
2022/02/05 10:49:51;;;;;;;4.07;2.23;;;6.20;99.90;;;;;;4967211;28;20500;-78
2022/02/05 10:52:33;;;;;;;5.60;2.17;;;6.20;99.90;;;;;;4967229;28;20732;-80
2022/02/05 10:55:16;;;;;;;3.50;1.50;;;6.20;99.90;;;;;;4984860;28;20184;-77
2022/02/05 11:05:51;;;;;;;5.47;2.30;;;5.80;99.90;;;;;;4984525;28;20265;-77
2022/02/05 11:08:19;;;;;;;4.00;1.60;;;5.90;99.90;;;;;;4985170;28;20204;-79
2022/02/05 11:18:45;;;;;;;5.80;2.07;;;6.10;99.90;;;;;;4984961;28;20208;-79
2022/02/05 11:21:12;;;;;;;5.57;2.00;;;6.20;99.90;;;;;;4966694;28;20231;-79
2022/02/05 11:23:37;;;;;;;6.53;1.70;;;6.50;99.90;;;;;;4985005;28;20180;-78
2022/02/05 11:26:05;;;;;;;4.30;1.50;;;6.70;99.90;;;;;;4985028;28;20238;-79
2022/02/05 11:28:50;;;;;;;3.17;1.47;;;6.90;99.90;;;;;;4984120;28;20204;-79
2022/02/05 11:31:18;;;;;;;4.87;1.83;;;7.10;99.90;;;;;;4967151;28;20578;-78
2022/02/05 11:33:44;;;;;;;4.93;1.30;;;7.10;99.90;;;;;;4966909;28;20177;-78
2022/02/05 11:38:44;;;;;;;3.17;1.50;;;7.20;99.90;;;;;;4984392;28;20552;-79
2022/02/05 11:41:34;;;;;;;3.47;1.53;;;7.20;99.90;;;;;;4966694;28;20195;-78
2022/02/05 11:44:41;;;;;;;3.20;1.53;;;7.10;99.90;;;;;;4967000;28;20191;-77
2022/02/05 11:47:07;;;;;;;4.50;1.60;;;7.10;99.90;;;;;;4973918;28;20228;-76
2022/02/05 11:49:51;;;;;;;3.50;1.20;;;7.20;99.90;;;;;;4965540;28;20599;-79
2022/02/05 11:52:35;;;;;;;4.53;1.20;;;7.10;99.90;;;;;;4983062;28;20203;-79
2022/02/05 11:55:06;;;;;;;7.07;1.40;;;6.90;99.90;;;;;;4983613;28;20319;-80
2022/02/05 11:57:44;;;;;;;5.83;1.57;;;6.90;99.90;;;;;;4981619;28;20212;-80
2022/02/05 12:00:20;;;;;;;7.20;2.13;;;6.90;99.90;;;;;;4981425;28;20195;-79
2022/02/05 12:02:57;;;;;;;8.03;1.60;;;6.80;99.90;;;;;;4986255;28;20199;-79
2022/02/05 12:05:28;;;;;;;7.20;1.60;;;6.80;99.90;;;;;;4986328;28;20924;-78
2022/02/05 12:08:06;;;;;;;3.23;1.20;;;6.70;99.90;;;;;;4968165;28;20204;-77
2022/02/05 12:10:37;;;;;;;5.53;1.73;;;6.70;99.90;;;;;;4988180;28;20208;-79
2022/02/05 12:13:21;;;;;;;6.17;1.70;;;6.60;99.90;;;;;;4968124;28;21336;-77
2022/02/05 12:16:08;;;;;;;3.67;1.43;;;6.60;99.90;;;;;;4986155;28;21130;-79
2022/02/05 12:19:12;;;;;;;2.27;1.33;;;6.50;99.90;;;;;;4968165;28;20286;-81
2022/02/05 12:21:59;;;;;;;5.73;1.73;;;6.50;99.90;;;;;;4968369;28;20191;-79
2022/02/05 12:24:38;;;;;;;3.70;1.43;;;6.60;99.90;;;;;;4985283;28;20203;-77
2022/02/05 12:27:30;;;;;;;5.30;1.70;;;6.70;99.90;;;;;;4967575;28;20215;-79
2022/02/05 12:30:36;;;;;;;4.37;1.40;;;6.60;99.90;;;;;;4992050;28;20180;-79
2022/02/05 12:33:03;;;;;;;2.43;1.30;;;6.50;99.90;;;;;;4984117;28;20658;-79
2022/02/05 12:35:30;;;;;;;5.20;1.40;;;6.50;99.90;;;;;;4967057;28;20215;-78
2022/02/05 12:38:00;;;;;;;3.63;1.40;;;6.50;99.90;;;;;;4985689;28;20192;-79
2022/02/05 12:40:26;;;;;;;6.50;1.60;;;6.60;99.90;;;;;;4985363;28;20184;-79
2022/02/05 12:42:53;;;;;;;4.37;1.43;;;6.70;99.90;;;;;;4985358;28;20398;-77
2022/02/05 12:45:24;;;;;;;3.43;1.67;;;6.70;99.90;;;;;;4984784;28;20270;-79
2022/02/05 12:47:50;;;;;;;3.20;1.60;;;6.90;99.90;;;;;;4984914;28;20320;-78
2022/02/05 12:50:16;;;;;;;4.57;1.73;;;6.90;99.90;;;;;;4984548;28;20268;-79
2022/02/05 12:52:48;;;;;;;2.83;1.50;;;6.80;99.90;;;;;;4984803;28;20756;-78
2022/02/05 12:55:24;;;;;;;5.23;1.63;;;6.60;99.90;;;;;;4967096;28;20218;-78
2022/02/05 12:57:59;;;;;;;3.53;1.87;;;6.40;99.90;;;;;;4984542;28;20200;-79
2022/02/05 13:00:25;;;;;;;3.80;1.47;;;6.30;99.90;;;;;;4985539;28;20175;-79
2022/02/05 13:02:51;;;;;;;2.80;1.50;;;6.30;99.90;;;;;;4986774;28;20538;-76
2022/02/05 13:05:16;;;;;;;6.37;1.70;;;6.30;99.90;;;;;;4990219;28;20265;-78
2022/02/05 13:07:43;;;;;;;3.47;1.17;;;6.20;99.90;;;;;;4991511;28;20238;-78
2022/02/05 13:10:09;;;;;;;2.93;1.53;;;6.20;99.90;;;;;;4974215;28;20207;-80
2022/02/05 13:12:37;;;;;;;4.47;1.60;;;6.20;99.90;;;;;;4991516;28;20560;-77
2022/02/05 13:15:21;;;;;;;3.70;1.50;;;6.30;99.90;;;;;;4990469;28;20265;-80
2022/02/05 13:34:25;;;;;;;3.97;1.20;;;6.10;99.90;;;;;;4992001;28;20230;-79
2022/02/05 13:42:16;;;;;;;6.03;2.07;;;6.30;99.90;;;;;;4990656;28;20219;-78
2022/02/05 13:44:58;;;;;;;4.67;1.63;;;6.40;99.90;;;;;;4991221;28;20216;-80
2022/02/05 13:47:28;;;;;;;4.27;1.73;;;6.40;99.90;;;;;;4990776;28;20219;-79
2022/02/05 13:50:02;;;;;;;5.20;1.70;;;6.30;99.90;;;;;;4991363;28;20631;-78
2022/02/05 13:52:44;;;;;;;4.50;1.43;;;6.40;99.90;;;;;;4973595;28;20192;-78
2022/02/05 13:55:17;;;;;;;3.07;1.60;;;6.40;99.90;;;;;;4973598;28;20192;-82
2022/02/05 13:58:08;;;;;;;2.70;1.80;;;6.40;99.90;;;;;;4988363;28;21125;-77
2022/02/05 14:00:42;;;;;;;2.47;1.53;;;6.30;99.90;;;;;;4973760;28;20314;-77
2022/02/05 14:03:09;;;;;;;3.57;1.77;;;6.30;99.90;;;;;;4991005;28;20184;-80
2022/02/05 14:05:36;;;;;;;5.07;2.07;;;6.20;99.90;;;;;;4989493;28;20180;-78
2022/02/05 14:08:03;;;;;;;4.37;2.03;;;6.20;99.90;;;;;;4990247;28;20200;-78
2022/02/05 14:10:29;;;;;;;3.57;1.83;;;6.20;99.90;;;;;;4971545;28;20464;-78
2022/02/05 14:12:57;;;;;;;4.63;2.03;;;6.20;99.90;;;;;;4990193;28;21052;-79
2022/02/05 14:15:27;;;;;;;3.90;2.07;;;6.10;99.90;;;;;;4988193;28;20192;-78
2022/02/05 14:18:10;;;;;;;4.30;1.90;;;6.10;99.90;;;;;;4987752;28;20200;-77
2022/02/05 14:20:48;;;;;;;3.00;1.77;;;6.10;99.90;;;;;;4987226;28;20215;-79
2022/02/05 14:23:16;;;;;;;4.17;2.00;;;6.10;99.90;;;;;;4987101;28;20183;-79
2022/02/05 14:26:02;;;;;;;4.33;2.10;;;6.20;99.90;;;;;;4987289;28;20186;-79
2022/02/05 14:28:45;;;;;;;2.40;1.70;;;6.10;99.90;;;;;;4969579;28;20223;-79
2022/02/05 14:31:22;;;;;;;6.07;2.03;;;6.10;99.90;;;;;;4969652;28;20263;-78
2022/02/05 14:40:20;;;;;;;16.00;2.93;;;6.10;99.90;;;;;;4987673;28;20335;-80
2022/02/05 14:42:21;;;;;;;3.80;1.73;;;6.10;99.90;;;;;;4987357;28;20258;-80
2022/02/05 14:44:48;;;;;;;2.40;1.20;;;6.10;99.90;;;;;;4988901;28;20176;-80
2022/02/05 14:47:14;;;;;;;6.07;1.97;;;6.00;99.90;;;;;;4987336;28;20277;-78
2022/02/05 14:49:40;;;;;;;3.57;1.77;;;6.10;99.90;;;;;;4988348;28;20603;-80
2022/02/05 14:52:09;;;;;;;1.77;1.43;;;6.00;99.90;;;;;;4986974;28;20188;-78
2022/02/05 14:54:35;;;;;;;3.77;1.37;;;6.00;99.90;;;;;;4987070;28;20187;-79
2022/02/05 14:57:02;;;;;;;5.17;1.70;;;5.90;99.90;;;;;;4985183;28;20212;-81
2022/02/05 14:59:29;;;;;;;2.37;1.43;;;5.90;99.90;;;;;;4987295;28;20185;-79
2022/02/05 15:01:55;;;;;;;4.47;1.50;;;5.80;99.90;;;;;;4987117;28;21204;-81
2022/02/05 15:04:21;;;;;;;2.57;1.57;;;5.90;99.90;;;;;;4970135;28;20211;-78
2022/02/05 15:06:47;;;;;;;4.30;1.80;;;5.80;99.90;;;;;;4987316;28;20204;-78
2022/02/05 15:09:13;;;;;;;2.63;1.37;;;5.80;99.90;;;;;;4986837;28;20184;-81
2022/02/05 15:11:39;;;;;;;3.53;2.27;;;5.80;99.90;;;;;;4987795;28;20187;-79
2022/02/05 15:14:05;;;;;;;2.17;1.20;;;5.80;99.90;;;;;;4988080;28;20200;-79
2022/02/05 15:16:33;;;;;;;4.40;1.70;;;5.70;99.90;;;;;;4988687;28;20200;-79
2022/02/05 15:18:59;;;;;;;2.73;1.40;;;5.70;99.90;;;;;;4988649;28;20177;-80
2022/02/05 15:21:27;;;;;;;2.80;1.67;;;5.70;99.90;;;;;;4984355;28;20192;-76
2022/02/05 15:23:53;;;;;;;3.53;1.23;;;5.70;99.90;;;;;;4985453;28;20181;-79
2022/02/05 15:26:19;;;;;;;5.53;1.57;;;5.60;99.90;;;;;;4985647;28;20496;-79
2022/02/05 15:28:47;;;;;;;2.13;1.43;;;5.60;99.90;;;;;;4969048;28;20219;-76
2022/02/05 15:31:13;;;;;;;2.83;1.57;;;5.60;99.90;;;;;;4985783;28;20276;-80
2022/02/05 15:33:44;;;;;;;5.23;2.50;;;5.60;99.90;;;;;;4985703;28;20677;-78
2022/02/05 15:36:16;;;;;;;2.53;2.10;;;5.60;99.90;;;;;;4985861;28;20196;-79
2022/02/05 15:39:12;;;;;;;4.70;2.20;;;5.60;99.90;;;;;;4985363;28;20206;-77
2022/02/05 15:44:12;;;;;;;4.90;1.73;;;5.60;99.90;;;;;;4985306;28;20709;-79
2022/02/05 15:46:37;;;;;;;3.53;2.03;;;5.60;99.90;;;;;;4985969;28;20196;-79
2022/02/05 15:49:04;;;;;;;3.63;2.23;;;5.60;99.90;;;;;;4987747;28;20191;-80
2022/02/05 15:51:31;;;;;;;2.73;1.73;;;5.50;99.90;;;;;;4969160;28;20300;-81
2022/02/05 15:54:01;;;;;;;4.63;2.50;;;5.50;99.90;;;;;;4969312;28;20179;-83
2022/02/05 15:58:59;;;;;;;3.43;1.60;;;5.40;99.90;;;;;;4988433;28;20177;-82
2022/02/05 16:01:24;;;;;;;4.80;2.20;;;5.30;99.90;;;;;;4987115;28;20172;-81
2022/02/05 16:03:50;;;;;;;1.90;1.50;;;5.30;99.90;;;;;;4987082;28;20207;-80
2022/02/05 16:06:16;;;;;;;3.80;1.60;;;5.30;99.90;;;;;;4984982;28;20235;-79
2022/02/05 16:08:41;;;;;;;2.87;1.80;;;5.30;99.90;;;;;;4965311;28;20286;-79
2022/02/05 16:11:07;;;;;;;5.00;2.17;;;5.20;99.90;;;;;;4964124;28;20211;-78
2022/02/05 16:13:33;;;;;;;10.30;3.63;;;5.20;99.90;;;;;;4981139;28;20188;-78
2022/02/05 16:15:59;;;;;;;5.50;2.43;;;5.20;99.90;;;;;;4982117;28;20203;-78
2022/02/05 16:18:24;;;;;;;2.10;1.57;;;5.30;99.90;;;;;;4981673;28;20207;-78
2022/02/05 16:20:50;;;;;;;4.53;2.10;;;5.20;99.90;;;;;;4963737;28;20179;-79
2022/02/05 16:23:16;;;;;;;2.27;1.47;;;5.30;99.90;;;;;;4980983;28;20250;-78